createdAt,value
2022-07-26T00:00:12.840Z,2.90
2022-07-26T00:02:47.277Z,2.40
2022-07-26T00:05:15.180Z,2.43
2022-07-26T00:07:41.882Z,2.53
2022-07-26T00:10:08.760Z,2.27
2022-07-26T00:12:35.726Z,2.37
2022-07-26T00:15:02.819Z,2.70
2022-07-26T00:17:29.528Z,2.80
2022-07-26T00:19:56.234Z,2.70
2022-07-26T00:22:35.465Z,3.17
2022-07-26T00:30:34.062Z,4.13
2022-07-26T00:33:00.820Z,2.50
2022-07-26T00:35:27.569Z,2.90
2022-07-26T00:37:54.299Z,3.20
2022-07-26T00:40:21.052Z,2.50
2022-07-26T00:42:47.801Z,3.17
2022-07-26T00:45:15.808Z,2.70
2022-07-26T00:47:42.884Z,3.07
2022-07-26T00:50:13.369Z,2.70
2022-07-26T00:52:42.976Z,2.57
2022-07-26T00:55:09.976Z,3.20
2022-07-26T00:57:37.725Z,2.90
2022-07-26T01:00:07.441Z,3.13
2022-07-26T01:02:34.256Z,2.67
2022-07-26T01:05:01.376Z,2.90
2022-07-26T01:07:29.282Z,2.53
2022-07-26T01:09:56.064Z,3.20
2022-07-26T01:12:22.738Z,2.67
2022-07-26T01:14:49.479Z,2.87
2022-07-26T01:17:16.893Z,2.80
2022-07-26T01:19:43.650Z,2.27
2022-07-26T01:22:14.397Z,2.50
2022-07-26T01:24:41.857Z,3.13
2022-07-26T01:27:08.763Z,2.40
2022-07-26T01:29:36.571Z,2.87
2022-07-26T01:32:04.988Z,2.30
2022-07-26T01:34:32.454Z,3.23
2022-07-26T01:36:59.478Z,2.70
2022-07-26T01:39:26.422Z,3.27
2022-07-26T01:41:54.194Z,2.30
2022-07-26T01:44:20.889Z,2.50
2022-07-26T01:46:47.575Z,3.00
2022-07-26T01:49:14.559Z,2.30
2022-07-26T01:51:41.355Z,3.10
2022-07-26T01:54:08.351Z,2.73
2022-07-26T01:56:35.464Z,2.40
2022-07-26T01:59:02.237Z,2.40
2022-07-26T02:01:38.823Z,2.70
2022-07-26T02:04:29.713Z,2.70
2022-07-26T02:06:56.384Z,2.70
2022-07-26T02:09:23.051Z,2.70
2022-07-26T02:11:52.471Z,2.70
2022-07-26T02:14:25.561Z,3.17
2022-07-26T02:16:59.621Z,2.80
2022-07-26T02:19:30.380Z,2.97
2022-07-26T02:21:57.674Z,2.93
2022-07-26T02:24:27.197Z,2.40
2022-07-26T02:26:53.930Z,3.83
2022-07-26T02:29:20.613Z,3.00
2022-07-26T02:31:48.420Z,2.70
2022-07-26T02:34:16.790Z,2.60
2022-07-26T02:36:44.007Z,2.53
2022-07-26T02:39:10.801Z,3.00
2022-07-26T02:41:37.598Z,3.00
2022-07-26T02:44:06.256Z,2.90
2022-07-26T02:46:33.213Z,2.30
2022-07-26T02:49:00.816Z,2.60
2022-07-26T02:51:27.727Z,2.70
2022-07-26T02:53:54.757Z,2.57
2022-07-26T02:56:21.542Z,2.93
2022-07-26T02:58:48.233Z,2.97
2022-07-26T03:01:15.096Z,2.97
2022-07-26T03:03:43.113Z,2.90
2022-07-26T03:06:11.561Z,3.33
2022-07-26T03:08:38.689Z,2.93
2022-07-26T03:11:10.350Z,2.60
2022-07-26T03:13:38.840Z,3.03
2022-07-26T03:16:06.885Z,3.30
2022-07-26T03:18:33.706Z,2.80
2022-07-26T03:21:00.439Z,3.00
2022-07-26T03:23:27.159Z,3.30
2022-07-26T03:25:53.882Z,2.70
2022-07-26T03:28:20.560Z,3.03
2022-07-26T03:30:47.368Z,3.17
2022-07-26T03:33:14.140Z,3.20
2022-07-26T03:35:40.813Z,3.00
2022-07-26T03:38:08.550Z,2.57
2022-07-26T03:40:35.298Z,3.43
2022-07-26T03:43:02.157Z,2.90
2022-07-26T03:45:29.832Z,3.57
2022-07-26T03:47:56.680Z,3.50
2022-07-26T03:50:23.594Z,2.97
2022-07-26T03:52:50.281Z,3.10
2022-07-26T03:55:35.729Z,3.20
2022-07-26T03:58:02.553Z,3.00
2022-07-26T04:00:29.266Z,3.40
2022-07-26T04:02:56.065Z,3.43
2022-07-26T04:05:23.534Z,3.17
2022-07-26T04:07:52.535Z,2.90
2022-07-26T04:10:20.803Z,3.00
2022-07-26T04:12:47.576Z,3.00
2022-07-26T04:15:16.858Z,2.93
2022-07-26T04:17:43.729Z,3.20
2022-07-26T04:20:12.477Z,2.50
2022-07-26T04:22:40.487Z,2.53
2022-07-26T04:25:08.857Z,3.40
2022-07-26T04:27:36.451Z,2.63
2022-07-26T04:30:04.002Z,3.17
2022-07-26T04:32:30.672Z,4.27
2022-07-26T04:34:57.333Z,2.40
2022-07-26T04:37:24.000Z,2.90
2022-07-26T04:39:54.947Z,2.77
2022-07-26T04:42:21.868Z,2.30
2022-07-26T04:44:48.603Z,2.80
2022-07-26T04:47:15.383Z,3.03
2022-07-26T04:49:42.078Z,3.40
2022-07-26T04:52:08.809Z,3.27
2022-07-26T04:54:35.516Z,3.57
2022-07-26T04:57:02.205Z,3.10
2022-07-26T04:59:28.898Z,2.90
2022-07-26T05:01:59.733Z,3.37
2022-07-26T05:04:26.872Z,3.67
2022-07-26T05:06:53.734Z,3.13
2022-07-26T05:09:20.473Z,3.30
2022-07-26T05:11:47.169Z,3.10
2022-07-26T05:14:13.860Z,3.70
2022-07-26T05:16:44.245Z,3.70
2022-07-26T05:19:11.985Z,3.47
2022-07-26T05:21:38.818Z,3.27
2022-07-26T05:24:07.850Z,3.40
2022-07-26T05:26:34.961Z,3.03
2022-07-26T05:29:01.726Z,3.33
2022-07-26T05:31:28.469Z,3.07
2022-07-26T05:33:57.883Z,3.40
2022-07-26T05:36:24.534Z,3.67
2022-07-26T05:38:51.232Z,3.37
2022-07-26T05:41:18.002Z,4.40
2022-07-26T05:43:44.805Z,3.23
2022-07-26T05:46:12.566Z,3.80
2022-07-26T05:48:40.017Z,4.00
2022-07-26T05:51:06.831Z,3.40
2022-07-26T05:53:33.965Z,3.70
2022-07-26T05:56:00.990Z,4.47
2022-07-26T05:58:27.808Z,4.00
2022-07-26T06:00:54.749Z,3.80
2022-07-26T06:03:24.527Z,3.80
2022-07-26T06:05:56.800Z,3.60
2022-07-26T06:08:25.719Z,3.30
2022-07-26T06:10:53.486Z,3.30
2022-07-26T06:13:20.150Z,3.83
2022-07-26T06:15:47.356Z,3.03
2022-07-26T06:18:14.594Z,3.87
2022-07-26T06:20:43.607Z,3.27
2022-07-26T06:23:10.834Z,2.77
2022-07-26T06:25:37.745Z,3.33
2022-07-26T06:28:06.172Z,3.43
2022-07-26T06:30:32.964Z,2.93
2022-07-26T06:32:59.685Z,2.60
2022-07-26T06:35:30.880Z,2.90
2022-07-26T06:37:58.672Z,2.63
2022-07-26T06:40:25.484Z,2.40
2022-07-26T06:42:52.292Z,2.80
2022-07-26T06:45:19.442Z,2.23
2022-07-26T06:47:46.142Z,2.63
2022-07-26T06:50:12.956Z,2.50
2022-07-26T06:52:39.632Z,2.20
2022-07-26T06:55:08.913Z,3.33
2022-07-26T06:57:44.821Z,3.07
2022-07-26T07:00:17.504Z,2.57
2022-07-26T07:02:44.184Z,2.07
2022-07-26T07:05:11.926Z,2.20
2022-07-26T07:07:38.763Z,2.30
2022-07-26T07:10:06.277Z,2.03
2022-07-26T07:12:33.021Z,2.10
2022-07-26T07:14:59.706Z,1.90
2022-07-26T07:17:26.544Z,2.27
2022-07-26T07:19:53.363Z,2.07
2022-07-26T07:22:20.052Z,2.33
2022-07-26T07:24:46.762Z,2.30
2022-07-26T07:27:15.782Z,1.90
2022-07-26T07:29:43.339Z,2.30
2022-07-26T07:32:18.130Z,2.10
2022-07-26T07:34:47.542Z,1.53
2022-07-26T07:37:14.834Z,2.40
2022-07-26T07:39:41.524Z,2.13
2022-07-26T07:42:08.280Z,2.17
2022-07-26T07:44:34.980Z,1.40
2022-07-26T07:47:02.129Z,2.30
2022-07-26T07:49:28.991Z,2.23
2022-07-26T07:51:55.842Z,2.20
2022-07-26T07:54:22.511Z,1.60
2022-07-26T07:56:49.302Z,1.67
2022-07-26T07:59:16.041Z,1.80
2022-07-26T08:01:42.805Z,2.00
2022-07-26T08:04:11.885Z,1.73
2022-07-26T08:06:40.792Z,1.50
2022-07-26T08:09:08.705Z,1.60
2022-07-26T08:11:36.242Z,2.10
2022-07-26T08:14:03.332Z,1.50
2022-07-26T08:16:31.053Z,1.83
2022-07-26T08:18:58.555Z,2.20
2022-07-26T08:21:28.967Z,1.43
2022-07-26T08:23:56.521Z,1.60
2022-07-26T08:26:23.391Z,1.90
2022-07-26T08:28:59.433Z,2.17
2022-07-26T08:31:28.040Z,1.93
2022-07-26T08:33:56.363Z,1.60
2022-07-26T08:36:23.359Z,1.40
2022-07-26T08:38:50.013Z,1.60
2022-07-26T08:41:18.136Z,1.50
2022-07-26T08:43:52.696Z,1.33
2022-07-26T08:46:27.715Z,1.30
2022-07-26T08:48:58.038Z,1.10
2022-07-26T08:51:25.915Z,1.27
2022-07-26T08:54:04.775Z,1.40
2022-07-26T08:56:37.493Z,1.40
2022-07-26T08:59:06.684Z,0.90
2022-07-26T09:01:33.862Z,0.90
2022-07-26T09:04:30.436Z,1.20
2022-07-26T09:07:04.164Z,1.00
2022-07-26T09:09:32.585Z,0.93
2022-07-26T09:12:12.700Z,1.10
2022-07-26T09:14:39.840Z,1.10
2022-07-26T09:17:06.650Z,1.07
2022-07-26T09:19:34.557Z,1.27
2022-07-26T09:22:10.507Z,1.30
2022-07-26T09:24:41.324Z,0.90
2022-07-26T09:27:11.861Z,1.00
2022-07-26T09:29:49.144Z,1.03
2022-07-26T09:32:24.863Z,1.17
2022-07-26T09:34:58.731Z,1.10
2022-07-26T09:37:36.625Z,1.10
2022-07-26T09:40:07.624Z,1.17
2022-07-26T09:42:34.752Z,2.10
2022-07-26T09:45:02.035Z,0.90
2022-07-26T09:47:39.958Z,1.30
2022-07-26T09:50:19.641Z,1.30
2022-07-26T09:53:09.258Z,0.90
2022-07-26T09:55:45.309Z,0.90
2022-07-26T09:58:14.199Z,1.20
2022-07-26T10:00:41.218Z,0.70
2022-07-26T10:03:08.064Z,0.90
2022-07-26T10:05:35.881Z,0.90
2022-07-26T10:08:02.886Z,0.80
2022-07-26T10:10:34.902Z,1.00
2022-07-26T10:13:03.027Z,0.73
2022-07-26T10:15:41.000Z,1.10
2022-07-26T10:18:30.669Z,0.80
2022-07-26T10:20:57.692Z,1.33
2022-07-26T10:23:39.411Z,1.03
2022-07-26T10:26:09.860Z,0.80
2022-07-26T10:28:37.974Z,0.90
2022-07-26T10:31:25.327Z,0.93
2022-07-26T10:33:54.962Z,0.90
2022-07-26T10:36:34.446Z,0.80
2022-07-26T10:39:11.309Z,0.70
2022-07-26T10:41:41.297Z,0.90
2022-07-26T10:44:26.176Z,0.73
2022-07-26T10:46:58.544Z,1.10
2022-07-26T10:49:32.880Z,0.70
2022-07-26T10:52:14.422Z,0.77
2022-07-26T10:54:59.280Z,0.90
2022-07-26T10:57:30.025Z,0.90
2022-07-26T10:59:57.847Z,0.90
2022-07-26T11:02:28.720Z,0.80
2022-07-26T11:05:04.314Z,0.80
2022-07-26T11:07:31.641Z,0.77
2022-07-26T11:09:59.175Z,0.87
2022-07-26T11:12:26.144Z,0.90
2022-07-26T11:14:54.200Z,0.90
2022-07-26T11:17:24.809Z,0.93
2022-07-26T11:19:51.953Z,1.63
2022-07-26T11:22:19.284Z,0.67
2022-07-26T11:24:46.666Z,0.73
2022-07-26T11:27:13.660Z,0.83
2022-07-26T11:29:41.503Z,1.00
2022-07-26T11:32:19.059Z,1.10
2022-07-26T11:34:47.302Z,0.70
2022-07-26T11:37:14.396Z,0.70
2022-07-26T11:39:41.185Z,1.00
2022-07-26T11:42:13.235Z,0.97
2022-07-26T11:44:44.617Z,0.87
2022-07-26T11:47:16.368Z,1.00
2022-07-26T11:49:52.802Z,1.00
2022-07-26T11:52:31.746Z,0.93
2022-07-26T11:54:58.987Z,0.70
2022-07-26T11:57:31.070Z,0.80
2022-07-26T11:59:59.046Z,0.70
2022-07-26T12:02:26.726Z,0.90
2022-07-26T12:05:18.160Z,0.70
2022-07-26T12:08:00.705Z,0.70
2022-07-26T12:10:29.270Z,0.70
2022-07-26T12:13:13.722Z,0.80
2022-07-26T12:15:52.180Z,0.80
2022-07-26T12:18:30.420Z,1.00
2022-07-26T12:21:05.585Z,0.80
2022-07-26T12:23:48.704Z,0.97
2022-07-26T12:26:27.079Z,0.90
2022-07-26T12:28:55.470Z,0.90
2022-07-26T12:31:32.942Z,0.80
2022-07-26T12:34:00.194Z,1.10
2022-07-26T12:36:29.594Z,0.80
2022-07-26T12:38:58.874Z,0.90
2022-07-26T12:41:36.678Z,0.80
2022-07-26T12:44:05.095Z,0.70
2022-07-26T12:46:35.759Z,0.70
2022-07-26T12:49:03.777Z,0.70
2022-07-26T12:51:30.696Z,0.80
2022-07-26T12:53:57.381Z,0.87
2022-07-26T12:56:24.072Z,0.83
2022-07-26T12:58:50.990Z,0.90
2022-07-26T13:01:17.766Z,0.90
2022-07-26T13:03:44.568Z,0.90
2022-07-26T13:06:11.257Z,0.80
2022-07-26T13:08:38.309Z,0.80
2022-07-26T13:11:05.057Z,1.00
2022-07-26T13:13:31.795Z,0.80
2022-07-26T13:15:58.755Z,0.83
2022-07-26T13:18:25.505Z,0.80
2022-07-26T13:20:52.193Z,1.27
2022-07-26T13:23:21.643Z,1.00
2022-07-26T13:25:48.976Z,1.10
2022-07-26T13:28:17.106Z,1.07
2022-07-26T13:30:44.288Z,0.90
2022-07-26T13:33:11.537Z,1.10
2022-07-26T13:35:42.657Z,0.77
2022-07-26T13:38:09.850Z,0.90
2022-07-26T13:40:37.135Z,0.80
2022-07-26T13:43:04.872Z,0.90
2022-07-26T13:45:31.634Z,1.07
2022-07-26T13:47:59.695Z,0.70
2022-07-26T13:50:29.940Z,0.80
2022-07-26T13:52:56.907Z,0.90
2022-07-26T13:55:23.959Z,0.80
2022-07-26T13:57:56.963Z,0.67
2022-07-26T14:00:29.078Z,0.90
2022-07-26T14:02:58.207Z,0.90
2022-07-26T14:05:25.277Z,0.70
2022-07-26T14:07:52.313Z,1.00
2022-07-26T14:10:19.998Z,0.90
2022-07-26T14:12:47.836Z,1.00
2022-07-26T14:15:21.172Z,1.00
2022-07-26T14:17:49.333Z,1.10
2022-07-26T14:20:18.758Z,0.77
2022-07-26T14:22:45.771Z,0.77
2022-07-26T14:25:12.715Z,0.90
2022-07-26T14:27:39.684Z,0.90
2022-07-26T14:30:06.947Z,0.60
2022-07-26T14:32:33.679Z,0.83
2022-07-26T14:35:00.341Z,0.87
2022-07-26T14:37:41.943Z,0.80
2022-07-26T14:40:13.197Z,1.33
2022-07-26T14:42:40.036Z,0.80
2022-07-26T14:45:07.900Z,0.80
2022-07-26T14:47:34.748Z,0.83
2022-07-26T14:50:06.275Z,0.70
2022-07-26T14:52:33.547Z,0.70
2022-07-26T14:55:00.266Z,0.87
2022-07-26T14:57:26.988Z,1.33
2022-07-26T14:59:53.724Z,1.20
2022-07-26T15:02:20.694Z,1.00
2022-07-26T15:04:47.496Z,0.83
2022-07-26T15:07:14.180Z,1.00
2022-07-26T15:09:40.922Z,0.90
2022-07-26T15:12:07.865Z,1.10
2022-07-26T15:14:35.494Z,0.80
2022-07-26T15:17:02.230Z,0.70
2022-07-26T15:19:29.031Z,0.80
2022-07-26T15:21:55.801Z,0.70
2022-07-26T15:24:24.393Z,0.80
2022-07-26T15:26:51.304Z,1.00
2022-07-26T15:29:17.981Z,0.80
2022-07-26T15:31:44.818Z,1.00
2022-07-26T15:34:12.063Z,1.10
2022-07-26T15:36:39.158Z,0.70
2022-07-26T15:39:16.674Z,0.90
2022-07-26T15:41:45.309Z,0.70
2022-07-26T15:44:12.710Z,1.40
2022-07-26T15:46:39.922Z,1.47
2022-07-26T15:49:07.467Z,1.07
2022-07-26T15:51:34.444Z,1.10
2022-07-26T15:54:02.723Z,1.17
2022-07-26T15:56:29.453Z,1.00
2022-07-26T15:58:56.235Z,1.20
2022-07-26T16:01:23.213Z,5.50
2022-07-26T16:03:50.137Z,5.00
2022-07-26T16:06:17.385Z,1.37
2022-07-26T16:09:05.824Z,0.97
2022-07-26T16:11:31.337Z,1.97
2022-07-26T16:14:01.132Z,1.30
2022-07-26T16:16:29.530Z,0.90
2022-07-26T16:18:56.392Z,1.30
2022-07-26T16:21:23.127Z,1.47
2022-07-26T16:23:50.995Z,0.93
2022-07-26T16:26:18.464Z,0.93
2022-07-26T16:28:45.618Z,1.07
2022-07-26T16:31:12.572Z,1.33
2022-07-26T16:33:46.333Z,1.00
2022-07-26T16:36:14.226Z,1.10
2022-07-26T16:38:41.110Z,0.90
2022-07-26T16:41:07.975Z,1.33
2022-07-26T16:43:35.323Z,0.70
2022-07-26T16:46:02.034Z,0.70
2022-07-26T16:48:28.877Z,0.90
2022-07-26T16:50:55.657Z,1.10
2022-07-26T16:53:22.328Z,1.03
2022-07-26T16:55:51.764Z,0.90
2022-07-26T16:58:19.617Z,1.00
2022-07-26T17:00:47.237Z,1.07
2022-07-26T17:03:16.071Z,0.80
2022-07-26T17:05:44.502Z,1.03
2022-07-26T17:08:11.375Z,0.97
2022-07-26T17:10:38.164Z,1.23
2022-07-26T17:13:04.998Z,1.10
2022-07-26T17:15:31.927Z,1.03
2022-07-26T17:17:58.715Z,1.10
2022-07-26T17:20:26.192Z,1.00
2022-07-26T17:22:53.612Z,1.30
2022-07-26T17:25:20.552Z,0.90
2022-07-26T17:27:47.219Z,1.20
2022-07-26T17:30:14.208Z,0.90
2022-07-26T17:32:41.077Z,0.93
2022-07-26T17:35:08.451Z,0.97
2022-07-26T17:37:35.201Z,1.07
2022-07-26T17:40:04.929Z,1.67
2022-07-26T17:42:35.321Z,0.90
2022-07-26T17:45:02.417Z,0.90
2022-07-26T17:47:30.404Z,1.20
2022-07-26T17:50:34.696Z,1.13
2022-07-26T17:52:50.041Z,1.13
2022-07-26T17:55:18.573Z,0.97
2022-07-26T17:57:45.980Z,1.30
2022-07-26T18:00:13.673Z,1.00
2022-07-26T18:02:40.836Z,0.97
2022-07-26T18:05:08.006Z,1.67
2022-07-26T18:07:34.836Z,1.10
2022-07-26T18:10:01.727Z,1.10
2022-07-26T18:12:30.466Z,1.00
2022-07-26T18:14:57.286Z,0.90
2022-07-26T18:17:24.450Z,0.90
2022-07-26T18:19:51.170Z,1.07
2022-07-26T18:22:17.818Z,1.10
2022-07-26T18:24:44.476Z,1.30
2022-07-26T18:27:11.177Z,1.10
2022-07-26T18:29:37.858Z,1.00
2022-07-26T18:32:04.717Z,0.90
2022-07-26T18:34:31.362Z,1.20
2022-07-26T18:36:58.040Z,1.20
2022-07-26T18:39:24.755Z,0.97
2022-07-26T18:41:59.351Z,1.10
2022-07-26T18:44:26.041Z,1.07
2022-07-26T18:46:52.803Z,0.90
2022-07-26T18:49:20.095Z,1.20
2022-07-26T18:51:48.741Z,1.17
2022-07-26T18:54:16.262Z,0.90
2022-07-26T18:56:43.129Z,1.00
2022-07-26T18:59:10.134Z,0.90
2022-07-26T19:01:37.360Z,0.90
2022-07-26T19:04:07.097Z,1.20
2022-07-26T19:06:34.778Z,1.20
2022-07-26T19:09:01.554Z,1.00
2022-07-26T19:11:29.625Z,1.30
2022-07-26T19:13:56.399Z,1.30
2022-07-26T19:16:23.202Z,1.50
2022-07-26T19:18:53.782Z,1.20
2022-07-26T19:21:24.210Z,1.40
2022-07-26T19:23:50.935Z,1.07
2022-07-26T19:26:17.794Z,1.20
2022-07-26T19:28:44.479Z,1.07
2022-07-26T19:31:11.304Z,1.00
2022-07-26T19:33:38.071Z,1.60
2022-07-26T19:36:04.963Z,1.30
2022-07-26T19:38:33.022Z,1.10
2022-07-26T19:41:00.743Z,1.10
2022-07-26T19:43:28.246Z,1.33
2022-07-26T19:45:55.201Z,1.17
2022-07-26T19:48:21.911Z,1.20
2022-07-26T19:50:48.783Z,1.70
2022-07-26T19:53:15.555Z,1.10
2022-07-26T19:55:42.508Z,1.33
2022-07-26T19:58:09.367Z,1.13
2022-07-26T20:00:36.239Z,1.07
2022-07-26T20:03:03.021Z,1.00
2022-07-26T20:05:29.848Z,1.40
2022-07-26T20:07:56.766Z,1.10
2022-07-26T20:10:27.307Z,1.40
2022-07-26T20:12:56.930Z,1.50
2022-07-26T20:15:23.748Z,1.83
2022-07-26T20:17:50.422Z,1.70
2022-07-26T20:20:17.925Z,1.93
2022-07-26T20:22:44.616Z,1.97
2022-07-26T20:25:11.868Z,2.13
2022-07-26T20:27:38.589Z,1.93
2022-07-26T20:30:06.832Z,2.53
2022-07-26T20:32:33.492Z,2.43
2022-07-26T20:35:00.179Z,2.00
2022-07-26T20:37:27.016Z,2.30
2022-07-26T20:39:53.720Z,2.07
2022-07-26T20:42:22.148Z,2.60
2022-07-26T20:44:49.450Z,2.50
2022-07-26T20:47:16.166Z,2.00
2022-07-26T20:49:42.899Z,1.70
2022-07-26T20:52:09.613Z,2.10
2022-07-26T20:54:36.291Z,2.83
2022-07-26T20:57:04.376Z,2.20
2022-07-26T20:59:32.368Z,2.07
2022-07-26T21:01:59.156Z,1.90
2022-07-26T21:04:26.184Z,2.10
2022-07-26T21:06:53.251Z,2.10
2022-07-26T21:09:19.945Z,2.10
2022-07-26T21:11:46.822Z,1.87
2022-07-26T21:14:13.489Z,2.00
2022-07-26T21:16:40.506Z,2.17
2022-07-26T21:19:07.343Z,2.17
2022-07-26T21:21:34.721Z,2.13
2022-07-26T21:24:01.384Z,2.63
2022-07-26T21:26:28.185Z,2.43
2022-07-26T21:28:54.873Z,1.80
2022-07-26T21:31:21.659Z,2.10
2022-07-26T21:33:48.397Z,2.33
2022-07-26T21:36:15.151Z,2.30
2022-07-26T21:38:42.620Z,2.57
2022-07-26T21:41:09.569Z,2.40
2022-07-26T21:43:40.117Z,2.33
2022-07-26T21:46:12.230Z,2.47
2022-07-26T21:48:40.147Z,2.23
2022-07-26T21:51:06.902Z,2.07
2022-07-26T21:53:33.570Z,2.30
2022-07-26T21:56:00.226Z,2.20
2022-07-26T21:58:28.081Z,2.20
2022-07-26T22:01:03.381Z,2.30
2022-07-26T22:03:34.944Z,2.37
2022-07-26T22:06:01.625Z,2.17
2022-07-26T22:08:28.358Z,2.40
2022-07-26T22:10:55.017Z,2.10
2022-07-26T22:13:21.676Z,2.17
2022-07-26T22:15:48.392Z,2.17
2022-07-26T22:18:15.056Z,2.30
2022-07-26T22:20:44.030Z,2.60
2022-07-26T22:23:12.771Z,2.23
2022-07-26T22:25:40.109Z,2.50
2022-07-26T22:28:08.346Z,2.47
2022-07-26T22:30:35.708Z,2.10
2022-07-26T22:33:04.114Z,2.47
2022-07-26T22:35:36.477Z,2.60
2022-07-26T22:38:09.659Z,2.23
2022-07-26T22:40:37.515Z,2.13
2022-07-26T22:43:04.557Z,2.30
2022-07-26T22:45:31.798Z,2.13
2022-07-26T22:47:58.563Z,2.17
2022-07-26T22:50:25.442Z,2.43
2022-07-26T22:52:52.388Z,1.80
2022-07-26T22:55:19.703Z,1.90
2022-07-26T22:57:46.724Z,2.80
2022-07-26T23:00:15.882Z,3.13
2022-07-26T23:02:43.155Z,3.03
2022-07-26T23:05:10.711Z,3.10
2022-07-26T23:07:38.089Z,3.40
2022-07-26T23:10:07.684Z,2.53
2022-07-26T23:12:34.534Z,2.10
2022-07-26T23:15:01.216Z,2.03
2022-07-26T23:17:27.920Z,1.97
2022-07-26T23:19:54.648Z,1.90
2022-07-26T23:22:21.461Z,1.80
2022-07-26T23:24:48.142Z,1.93
2022-07-26T23:27:19.850Z,1.90
2022-07-26T23:29:48.034Z,2.07
2022-07-26T23:32:15.748Z,2.33
2022-07-26T23:34:42.541Z,1.90
2022-07-26T23:37:09.241Z,2.40
2022-07-26T23:39:35.942Z,1.90
2022-07-26T23:42:02.737Z,1.70
2022-07-26T23:44:30.610Z,1.60
2022-07-26T23:46:58.243Z,2.10
2022-07-26T23:49:25.379Z,1.70
2022-07-26T23:51:52.143Z,1.60
2022-07-26T23:54:18.870Z,1.77
2022-07-26T23:56:45.598Z,2.00
2022-07-26T23:59:12.949Z,1.70
